RCH851 EPRZ-EDDS
Flight info
| Callsign | RCH851 |
|---|---|
| Flight time | N/A |
| Altitude | 32000 |
| Route | GOVRI T738 LUVOD Q10 PADKA DCT OKG DCT AMOSA N869 DKB Z818 GEBNO GEBNO1W |
| Aircraft | C17/H-SDE1E2FGHIJ5RTUWXY/LB1D1 |
Departure
| Time | 2026-05-04 13:22 |
|---|---|
| Airport | Rzeszów-Jasionka Airport (EPRZ) |
Arrival
| Time | N/A |
|---|---|
| Airport | Stuttgart Airport (EDDS) |
| Time | Latitude | Longitude | Altitude | Speed | Heading |
|---|---|---|---|---|---|
| 2026-05-04 12:58 | 50.11266 | 22.00820 | 698 ft | 0 kts | 195° |
| 2026-05-04 13:15 | 50.11253 | 22.00816 | 704 ft | 7 kts | 185° |
| 2026-05-04 13:15 | 50.11192 | 22.00848 | 695 ft | 15 kts | 127° |
| 2026-05-04 13:15 | 50.11177 | 22.01025 | 695 ft | 21 kts | 95° |
| 2026-05-04 13:16 | 50.11173 | 22.01304 | 697 ft | 28 kts | 92° |
| 2026-05-04 13:16 | 50.11162 | 22.01599 | 694 ft | 25 kts | 86° |
| 2026-05-04 13:16 | 50.11162 | 22.01866 | 693 ft | 24 kts | 91° |
| 2026-05-04 13:16 | 50.11158 | 22.02129 | 698 ft | 24 kts | 91° |
| 2026-05-04 13:17 | 50.11159 | 22.02375 | 697 ft | 22 kts | 90° |
| 2026-05-04 13:17 | 50.11158 | 22.02607 | 695 ft | 22 kts | 90° |
| 2026-05-04 13:17 | 50.11079 | 22.02737 | 690 ft | 17 kts | 174° |
| 2026-05-04 13:17 | 50.10992 | 22.02820 | 686 ft | 18 kts | 98° |
| 2026-05-04 13:18 | 50.10990 | 22.02995 | 689 ft | 15 kts | 84° |
| 2026-05-04 13:18 | 50.10993 | 22.03163 | 689 ft | 18 kts | 90° |
| 2026-05-04 13:18 | 50.10990 | 22.03380 | 688 ft | 22 kts | 93° |
| 2026-05-04 13:18 | 50.10980 | 22.03634 | 686 ft | 25 kts | 94° |
| 2026-05-04 13:19 | 50.10967 | 22.03932 | 689 ft | 29 kts | 95° |
| 2026-05-04 13:19 | 50.10951 | 22.04249 | 682 ft | 30 kts | 89° |
| 2026-05-04 13:19 | 50.10946 | 22.04549 | 684 ft | 17 kts | 94° |
| 2026-05-04 13:19 | 50.10961 | 22.04600 | 682 ft | 2 kts | 347° |
| 2026-05-04 13:20 | 50.10965 | 22.04590 | 683 ft | 2 kts | 296° |
| 2026-05-04 13:20 | 50.10965 | 22.04574 | 682 ft | 2 kts | 272° |
| 2026-05-04 13:20 | 50.10968 | 22.04396 | 683 ft | 43 kts | 271° |
| 2026-05-04 13:20 | 50.10977 | 22.03633 | 688 ft | 95 kts | 271° |
| 2026-05-04 13:21 | 50.10998 | 22.02402 | 691 ft | 131 kts | 271° |
| 2026-05-04 13:21 | 50.11006 | 22.00916 | 832 ft | 138 kts | 266° |
| 2026-05-04 13:21 | 50.11019 | 21.99537 | 1271 ft | 125 kts | 267° |
| 2026-05-04 13:21 | 50.11043 | 21.98102 | 1259 ft | 148 kts | 267° |
| 2026-05-04 13:22 | 50.11065 | 21.96464 | 1595 ft | 131 kts | 268° |
| 2026-05-04 13:22 | 50.11085 | 21.95312 | 2268 ft | 100 kts | 265° |
| 2026-05-04 13:22 | 50.11093 | 21.94018 | 2074 ft | 137 kts | 269° |
| 2026-05-04 13:22 | 50.11117 | 21.92613 | 2501 ft | 116 kts | 266° |
| 2026-05-04 13:23 | 50.11126 | 21.91369 | 2727 ft | 124 kts | 267° |
| 2026-05-04 13:23 | 50.11147 | 21.89870 | 3346 ft | 132 kts | 269° |
| 2026-05-04 13:23 | 50.11171 | 21.88767 | 4766 ft | 84 kts | 265° |
| 2026-05-04 13:23 | 50.11161 | 21.87621 | 5082 ft | 134 kts | 267° |
| 2026-05-04 13:24 | 50.11200 | 21.86173 | 6094 ft | 113 kts | 269° |
| 2026-05-04 13:24 | 50.11207 | 21.85155 | 7190 ft | 93 kts | 267° |
| 2026-05-04 13:24 | 50.11213 | 21.83951 | 7573 ft | 124 kts | 268° |